sensor_id;sensor_type;location;lat;lon;timestamp;pressure;altitude;pressure_sealevel;temperature;humidity
22775;BME280;11554;51.106;3.684;2022-09-23T00:00:00;101752.03;;;9.23;98.33
22775;BME280;11554;51.106;3.684;2022-09-23T00:05:00;101754.38;;;9.21;99.07
22775;BME280;11554;51.106;3.684;2022-09-23T00:10:00;101754.13;;;9.03;96.84
22775;BME280;11554;51.106;3.684;2022-09-23T00:15:00;101754.66;;;8.95;96.64
22775;BME280;11554;51.106;3.684;2022-09-23T00:20:00;101749.14;;;8.90;96.73
22775;BME280;11554;51.106;3.684;2022-09-23T00:25:00;101745.31;;;8.85;96.57
22775;BME280;11554;51.106;3.684;2022-09-23T00:30:00;101747.96;;;8.78;96.85
22775;BME280;11554;51.106;3.684;2022-09-23T00:35:00;101741.54999999999;;;8.75;97.36
22775;BME280;11554;51.106;3.684;2022-09-23T00:40:00;101735.82;;;8.68;97.3
22775;BME280;11554;51.106;3.684;2022-09-23T00:45:00;101735.94;;;8.64;97.42
22775;BME280;11554;51.106;3.684;2022-09-23T00:50:01;101741.8;;;8.64;98.42
22775;BME280;11554;51.106;3.684;2022-09-23T00:55:01;101742.54;;;8.60;97.77
22775;BME280;11554;51.106;3.684;2022-09-23T01:00:00;101734.36;;;8.54;97.84
22775;BME280;11554;51.106;3.684;2022-09-23T01:05:00;101735.67;;;8.51;99.03
22775;BME280;11554;51.106;3.684;2022-09-23T01:10:00;101731.44;;;8.46;99.68
22775;BME280;11554;51.106;3.684;2022-09-23T01:15:02;101735.69;;;8.41;99.49
22775;BME280;11554;51.106;3.684;2022-09-23T01:20:04;101729.81;;;8.35;98.87
22775;BME280;11554;51.106;3.684;2022-09-23T01:25:05;101723.56;;;8.32;98.62
22775;BME280;11554;51.106;3.684;2022-09-23T01:30:04;101719.81;;;8.31;99.09
22775;BME280;11554;51.106;3.684;2022-09-23T01:35:01;101710.49;;;8.44;100.0
22775;BME280;11554;51.106;3.684;2022-09-23T01:40:02;101710.1;;;8.44;100.0
22775;BME280;11554;51.106;3.684;2022-09-23T01:45:00;101705.73000000001;;;8.40;100.0
22775;BME280;11554;51.106;3.684;2022-09-23T01:50:01;101698.51999999999;;;8.48;100.0
22775;BME280;11554;51.106;3.684;2022-09-23T01:55:03;101698.81;;;8.46;100.0
22775;BME280;11554;51.106;3.684;2022-09-23T02:00:03;101693.23000000001;;;8.44;100.0
22775;BME280;11554;51.106;3.684;2022-09-23T02:05:01;101696.62;;;8.42;100.0
22775;BME280;11554;51.106;3.684;2022-09-23T02:10:02;101684.93999999999;;;8.48;100.0
22775;BME280;11554;51.106;3.684;2022-09-23T02:15:00;101697.05;;;8.48;100.0
22775;BME280;11554;51.106;3.684;2022-09-23T02:20:00;101689.65;;;8.47;100.0
22775;BME280;11554;51.106;3.684;2022-09-23T02:25:00;101691.13;;;8.47;100.0
22775;BME280;11554;51.106;3.684;2022-09-23T02:30:01;101682.09000000001;;;8.62;100.0
22775;BME280;11554;51.106;3.684;2022-09-23T02:35:01;101675.2;;;8.64;100.0
22775;BME280;11554;51.106;3.684;2022-09-23T02:40:01;101668.37000000001;;;8.64;100.0
22775;BME280;11554;51.106;3.684;2022-09-23T02:45:00;101665.59;;;8.63;100.0
22775;BME280;11554;51.106;3.684;2022-09-23T02:50:00;101661.19;;;8.60;100.0
22775;BME280;11554;51.106;3.684;2022-09-23T02:55:00;101661.53;;;8.58;100.0
22775;BME280;11554;51.106;3.684;2022-09-23T03:00:00;101663.64;;;8.53;100.0
22775;BME280;11554;51.106;3.684;2022-09-23T03:05:02;101667.0;;;8.61;100.0
22775;BME280;11554;51.106;3.684;2022-09-23T03:10:02;101668.04;;;8.64;100.0
22775;BME280;11554;51.106;3.684;2022-09-23T03:15:04;101656.11;;;8.65;100.0
22775;BME280;11554;51.106;3.684;2022-09-23T03:20:01;101656.95;;;8.69;100.0
22775;BME280;11554;51.106;3.684;2022-09-23T03:25:05;101651.26000000001;;;8.69;100.0
22775;BME280;11554;51.106;3.684;2022-09-23T03:30:00;101644.16;;;8.72;100.0
22775;BME280;11554;51.106;3.684;2022-09-23T03:35:00;101642.07;;;8.83;100.0
22775;BME280;11554;51.106;3.684;2022-09-23T03:40:01;101636.72;;;8.91;100.0
22775;BME280;11554;51.106;3.684;2022-09-23T03:45:00;101636.65999999999;;;8.96;100.0
22775;BME280;11554;51.106;3.684;2022-09-23T03:50:00;101630.36;;;9.08;100.0
22775;BME280;11554;51.106;3.684;2022-09-23T03:55:00;101624.63;;;9.12;100.0
22775;BME280;11554;51.106;3.684;2022-09-23T04:00:00;101625.87;;;9.21;100.0
22775;BME280;11554;51.106;3.684;2022-09-23T04:05:00;101628.7;;;9.25;100.0
22775;BME280;11554;51.106;3.684;2022-09-23T04:10:00;101627.94;;;9.24;100.0
22775;BME280;11554;51.106;3.684;2022-09-23T04:15:00;101631.83;;;9.20;100.0
22775;BME280;11554;51.106;3.684;2022-09-23T04:20:00;101636.08;;;9.09;100.0
22775;BME280;11554;51.106;3.684;2022-09-23T04:25:00;101630.72;;;9.03;100.0
22775;BME280;11554;51.106;3.684;2022-09-23T04:30:00;101633.23000000001;;;8.98;100.0
22775;BME280;11554;51.106;3.684;2022-09-23T04:35:00;101633.89;;;8.96;100.0
22775;BME280;11554;51.106;3.684;2022-09-23T04:40:00;101632.95000000001;;;9.05;100.0
22775;BME280;11554;51.106;3.684;2022-09-23T04:45:00;101632.83;;;9.09;100.0
22775;BME280;11554;51.106;3.684;2022-09-23T04:50:00;101626.56;;;9.09;100.0
22775;BME280;11554;51.106;3.684;2022-09-23T04:55:00;101624.57;;;9.08;100.0
22775;BME280;11554;51.106;3.684;2022-09-23T05:00:00;101615.7;;;9.07;100.0
22775;BME280;11554;51.106;3.684;2022-09-23T05:05:00;101614.17;;;9.02;100.0
22775;BME280;11554;51.106;3.684;2022-09-23T05:10:00;101613.13;;;9.04;100.0
22775;BME280;11554;51.106;3.684;2022-09-23T05:15:00;101613.92;;;9.09;100.0
22775;BME280;11554;51.106;3.684;2022-09-23T05:20:00;101618.44;;;9.13;100.0
22775;BME280;11554;51.106;3.684;2022-09-23T05:25:00;101627.09;;;9.13;100.0
22775;BME280;11554;51.106;3.684;2022-09-23T05:30:00;101634.1;;;9.20;100.0
22775;BME280;11554;51.106;3.684;2022-09-23T05:35:00;101623.69;;;9.22;100.0
22775;BME280;11554;51.106;3.684;2022-09-23T05:40:00;101627.59;;;9.17;100.0
22775;BME280;11554;51.106;3.684;2022-09-23T05:45:00;101621.55;;;9.19;100.0
22775;BME280;11554;51.106;3.684;2022-09-23T05:50:00;101622.28;;;9.21;100.0
22775;BME280;11554;51.106;3.684;2022-09-23T05:55:00;101616.04999999999;;;9.24;100.0
22775;BME280;11554;51.106;3.684;2022-09-23T06:00:00;101616.38;;;9.31;100.0
22775;BME280;11554;51.106;3.684;2022-09-23T06:05:00;101617.94;;;9.41;100.0
22775;BME280;11554;51.106;3.684;2022-09-23T06:10:00;101612.95;;;9.48;100.0
22775;BME280;11554;51.106;3.684;2022-09-23T06:15:00;101611.01999999999;;;9.57;100.0
22775;BME280;11554;51.106;3.684;2022-09-23T06:20:00;101616.41;;;9.66;100.0
22775;BME280;11554;51.106;3.684;2022-09-23T06:25:00;101610.0;;;9.78;100.0
22775;BME280;11554;51.106;3.684;2022-09-23T06:30:00;101604.26999999999;;;9.90;100.0
22775;BME280;11554;51.106;3.684;2022-09-23T06:35:00;101608.09000000001;;;10.01;100.0
22775;BME280;11554;51.106;3.684;2022-09-23T06:40:00;101615.22;;;10.15;100.0
22775;BME280;11554;51.106;3.684;2022-09-23T06:45:00;101625.22;;;10.31;100.0
22775;BME280;11554;51.106;3.684;2022-09-23T06:50:00;101622.92;;;10.48;100.0
22775;BME280;11554;51.106;3.684;2022-09-23T06:55:00;101617.39;;;10.64;100.0
22775;BME280;11554;51.106;3.684;2022-09-23T07:00:00;101611.78;;;10.83;100.0
22775;BME280;11554;51.106;3.684;2022-09-23T07:05:00;101607.15;;;11.08;100.0
22775;BME280;11554;51.106;3.684;2022-09-23T07:10:00;101605.46;;;11.37;100.0
22775;BME280;11554;51.106;3.684;2022-09-23T07:15:00;101609.67000000001;;;11.63;100.0
22775;BME280;11554;51.106;3.684;2022-09-23T07:20:00;101604.63;;;11.89;99.67
22775;BME280;11554;51.106;3.684;2022-09-23T07:25:00;101599.01999999999;;;12.10;98.56
22775;BME280;11554;51.106;3.684;2022-09-23T07:30:00;101601.48000000001;;;12.30;97.85
22775;BME280;11554;51.106;3.684;2022-09-23T07:35:00;101606.62;;;12.50;97.32
22775;BME280;11554;51.106;3.684;2022-09-23T07:40:00;101604.02;;;12.74;96.55
22775;BME280;11554;51.106;3.684;2022-09-23T07:45:00;101602.15;;;13.02;95.92
22775;BME280;11554;51.106;3.684;2022-09-23T07:50:00;101608.4;;;13.33;95.8
22775;BME280;11554;51.106;3.684;2022-09-23T07:55:00;101604.13;;;13.58;93.93
22775;BME280;11554;51.106;3.684;2022-09-23T08:00:00;101604.57;;;13.76;93.06
22775;BME280;11554;51.106;3.684;2022-09-23T08:05:01;101609.67000000001;;;14.00;92.43
22775;BME280;11554;51.106;3.684;2022-09-23T08:10:00;101614.09;;;14.30;92.48
22775;BME280;11554;51.106;3.684;2022-09-23T08:15:00;101618.66;;;14.34;91.29
22775;BME280;11554;51.106;3.684;2022-09-23T08:20:00;101621.94;;;14.44;90.9
22775;BME280;11554;51.106;3.684;2022-09-23T08:25:00;101628.59;;;14.56;90.84
22775;BME280;11554;51.106;3.684;2022-09-23T08:30:00;101625.59;;;14.61;90.27
22775;BME280;11554;51.106;3.684;2022-09-23T08:35:00;101630.04;;;14.89;90.01
22775;BME280;11554;51.106;3.684;2022-09-23T08:40:00;101630.11;;;15.04;89.22
22775;BME280;11554;51.106;3.684;2022-09-23T08:45:00;101639.14;;;15.16;89.21
22775;BME280;11554;51.106;3.684;2022-09-23T08:50:02;101639.43000000001;;;15.33;88.63
22775;BME280;11554;51.106;3.684;2022-09-23T08:55:00;101634.2;;;15.67;89.18
22775;BME280;11554;51.106;3.684;2022-09-23T09:00:00;101626.79000000001;;;15.82;87.69
22775;BME280;11554;51.106;3.684;2022-09-23T09:05:02;101629.49;;;15.98;87.55
22775;BME280;11554;51.106;3.684;2022-09-23T09:10:02;101634.39;;;16.13;87.19
22775;BME280;11554;51.106;3.684;2022-09-23T09:15:00;101626.83;;;16.23;86.51
22775;BME280;11554;51.106;3.684;2022-09-23T09:20:01;101625.2;;;16.59;86.35
22775;BME280;11554;51.106;3.684;2022-09-23T09:25:01;101621.20999999999;;;16.84;85.44
22775;BME280;11554;51.106;3.684;2022-09-23T09:30:00;101611.87999999999;;;17.11;85.22
22775;BME280;11554;51.106;3.684;2022-09-23T09:35:04;101610.24;;;17.34;85.11
22775;BME280;11554;51.106;3.684;2022-09-23T09:40:00;101603.7;;;17.46;83.65
22775;BME280;11554;51.106;3.684;2022-09-23T09:45:00;101604.83;;;17.61;83.34
22775;BME280;11554;51.106;3.684;2022-09-23T09:50:03;101600.2;;;17.97;83.8
22775;BME280;11554;51.106;3.684;2022-09-23T10:05:01;101603.81;;;18.56;81.99
22775;BME280;11554;51.106;3.684;2022-09-23T10:10:10;101601.62;;;18.66;80.83
22775;BME280;11554;51.106;3.684;2022-09-23T10:15:00;101601.54;;;18.86;80.96
22775;BME280;11554;51.106;3.684;2022-09-23T10:20:01;101596.95;;;19.25;78.33
22775;BME280;11554;51.106;3.684;2022-09-23T10:25:00;101596.7;;;19.28;79.48
22775;BME280;11554;51.106;3.684;2022-09-23T10:30:00;101584.58;;;19.49;79.69
22775;BME280;11554;51.106;3.684;2022-09-23T10:35:02;101580.0;;;19.80;78.19
22775;BME280;11554;51.106;3.684;2022-09-23T10:40:00;101580.08;;;20.22;77.81
22775;BME280;11554;51.106;3.684;2022-09-23T10:45:01;101583.87;;;20.36;76.31
22775;BME280;11554;51.106;3.684;2022-09-23T10:50:03;101583.18000000001;;;20.72;76.23
22775;BME280;11554;51.106;3.684;2022-09-23T10:55:03;101580.11;;;21.06;73.23
22775;BME280;11554;51.106;3.684;2022-09-23T11:00:00;101575.95999999999;;;20.91;74.75
22775;BME280;11554;51.106;3.684;2022-09-23T11:05:04;101578.34;;;20.73;72.54
22775;BME280;11554;51.106;3.684;2022-09-23T11:15:02;101573.58;;;20.61;74.18
22775;BME280;11554;51.106;3.684;2022-09-23T11:20:02;101574.23999999999;;;20.44;74.49
22775;BME280;11554;51.106;3.684;2022-09-23T11:25:04;101566.53;;;20.78;76.47
22775;BME280;11554;51.106;3.684;2022-09-23T11:30:01;101562.31;;;21.07;75.65
22775;BME280;11554;51.106;3.684;2022-09-23T11:35:08;101558.5;;;21.29;73.99
22775;BME280;11554;51.106;3.684;2022-09-23T11:40:00;101556.24;;;21.61;73.49
22775;BME280;11554;51.106;3.684;2022-09-23T11:45:01;101554.85;;;21.68;73.43
22775;BME280;11554;51.106;3.684;2022-09-23T11:50:01;101552.56000000001;;;21.93;72.67
22775;BME280;11554;51.106;3.684;2022-09-23T11:55:00;101550.42;;;21.98;72.38
22775;BME280;11554;51.106;3.684;2022-09-23T12:00:03;101541.51000000001;;;22.01;72.0
22775;BME280;11554;51.106;3.684;2022-09-23T12:05:01;101548.01999999999;;;22.38;72.08
22775;BME280;11554;51.106;3.684;2022-09-23T12:10:00;101545.31;;;22.28;71.5
22775;BME280;11554;51.106;3.684;2022-09-23T12:15:01;101543.22;;;22.25;71.51
22775;BME280;11554;51.106;3.684;2022-09-23T12:20:04;101539.43000000001;;;21.95;71.93
22775;BME280;11554;51.106;3.684;2022-09-23T12:25:05;101535.06;;;21.96;73.27
22775;BME280;11554;51.106;3.684;2022-09-23T12:30:01;101533.51;;;21.98;72.86
22775;BME280;11554;51.106;3.684;2022-09-23T12:35:00;101535.29999999999;;;22.07;72.28
22775;BME280;11554;51.106;3.684;2022-09-23T12:40:03;101528.39;;;22.05;73.4
22775;BME280;11554;51.106;3.684;2022-09-23T12:50:00;101520.88;;;21.87;73.7
22775;BME280;11554;51.106;3.684;2022-09-23T12:55:17;101519.78;;;21.47;74.24
22775;BME280;11554;51.106;3.684;2022-09-23T13:10:03;101515.32999999999;;;20.99;77.06
22775;BME280;11554;51.106;3.684;2022-09-23T13:15:01;101506.16;;;20.87;77.19
22775;BME280;11554;51.106;3.684;2022-09-23T13:20:01;101503.63;;;20.71;77.24
22775;BME280;11554;51.106;3.684;2022-09-23T13:25:00;101496.04000000001;;;20.57;77.45
22775;BME280;11554;51.106;3.684;2022-09-23T13:30:02;101497.16;;;20.32;78.31
22775;BME280;11554;51.106;3.684;2022-09-23T13:35:01;101490.02;;;20.03;79.0
22775;BME280;11554;51.106;3.684;2022-09-23T13:40:08;101484.25;;;19.86;80.19
22775;BME280;11554;51.106;3.684;2022-09-23T13:45:00;101484.53;;;19.63;81.7
22775;BME280;11554;51.106;3.684;2022-09-23T13:50:00;101480.92;;;19.44;83.0
22775;BME280;11554;51.106;3.684;2022-09-23T13:55:00;101478.78;;;19.26;85.17
22775;BME280;11554;51.106;3.684;2022-09-23T14:00:00;101471.3;;;19.19;86.0
22775;BME280;11554;51.106;3.684;2022-09-23T14:05:08;101473.44;;;19.03;86.78
22775;BME280;11554;51.106;3.684;2022-09-23T14:10:00;101473.46;;;18.95;87.28
22775;BME280;11554;51.106;3.684;2022-09-23T14:15:00;101469.39;;;18.90;87.84
22775;BME280;11554;51.106;3.684;2022-09-23T14:20:00;101465.09;;;18.81;87.45
22775;BME280;11554;51.106;3.684;2022-09-23T14:25:00;101464.51;;;18.84;88.22
22775;BME280;11554;51.106;3.684;2022-09-23T14:30:00;101461.14;;;18.73;88.49
22775;BME280;11554;51.106;3.684;2022-09-23T14:35:04;101457.56;;;18.65;88.01
22775;BME280;11554;51.106;3.684;2022-09-23T14:40:00;101455.24;;;18.60;88.58
22775;BME280;11554;51.106;3.684;2022-09-23T14:45:00;101454.21;;;18.48;88.63
22775;BME280;11554;51.106;3.684;2022-09-23T14:50:00;101451.56;;;18.39;89.02
22775;BME280;11554;51.106;3.684;2022-09-23T14:55:00;101452.39;;;18.27;89.1
22775;BME280;11554;51.106;3.684;2022-09-23T15:00:06;101455.0;;;18.15;89.81
22775;BME280;11554;51.106;3.684;2022-09-23T15:10:00;101448.24;;;17.84;92.37
22775;BME280;11554;51.106;3.684;2022-09-23T15:15:00;101453.25;;;17.68;92.53
22775;BME280;11554;51.106;3.684;2022-09-23T15:20:01;101455.28;;;17.42;92.88
22775;BME280;11554;51.106;3.684;2022-09-23T15:25:09;101452.86;;;17.20;94.2
22775;BME280;11554;51.106;3.684;2022-09-23T15:30:01;101451.11;;;17.01;96.15
22775;BME280;11554;51.106;3.684;2022-09-23T15:35:00;101449.41;;;16.86;97.64
22775;BME280;11554;51.106;3.684;2022-09-23T15:40:00;101447.55;;;16.81;98.8
22775;BME280;11554;51.106;3.684;2022-09-23T15:45:00;101442.61;;;16.77;100.0
22775;BME280;11554;51.106;3.684;2022-09-23T15:50:00;101441.89;;;16.67;100.0
22775;BME280;11554;51.106;3.684;2022-09-23T15:55:00;101439.73;;;16.54;100.0
22775;BME280;11554;51.106;3.684;2022-09-23T16:00:00;101435.49;;;16.46;100.0
22775;BME280;11554;51.106;3.684;2022-09-23T16:05:00;101436.15999999999;;;16.38;100.0
22775;BME280;11554;51.106;3.684;2022-09-23T16:10:00;101434.99;;;16.28;100.0
22775;BME280;11554;51.106;3.684;2022-09-23T16:15:00;101431.44;;;16.20;100.0
22775;BME280;11554;51.106;3.684;2022-09-23T16:20:00;101425.2;;;16.10;100.0
22775;BME280;11554;51.106;3.684;2022-09-23T16:25:00;101424.81;;;16.01;100.0
22775;BME280;11554;51.106;3.684;2022-09-23T16:30:00;101422.92;;;15.86;100.0
22775;BME280;11554;51.106;3.684;2022-09-23T16:35:00;101417.90999999999;;;15.72;100.0
22775;BME280;11554;51.106;3.684;2022-09-23T16:40:00;101418.18;;;15.63;100.0
22775;BME280;11554;51.106;3.684;2022-09-23T16:45:00;101419.16;;;15.56;100.0
22775;BME280;11554;51.106;3.684;2022-09-23T16:50:00;101419.0;;;15.48;100.0
22775;BME280;11554;51.106;3.684;2022-09-23T16:55:00;101423.54000000001;;;15.38;100.0
22775;BME280;11554;51.106;3.684;2022-09-23T17:00:00;101418.8;;;15.26;100.0
22775;BME280;11554;51.106;3.684;2022-09-23T17:05:00;101424.78;;;15.13;100.0
22775;BME280;11554;51.106;3.684;2022-09-23T17:10:00;101425.41;;;15.03;100.0
22775;BME280;11554;51.106;3.684;2022-09-23T17:15:01;101431.64;;;14.93;100.0
22775;BME280;11554;51.106;3.684;2022-09-23T17:20:00;101430.7;;;14.83;100.0
22775;BME280;11554;51.106;3.684;2022-09-23T17:25:00;101433.69;;;14.75;100.0
22775;BME280;11554;51.106;3.684;2022-09-23T17:30:00;101435.20999999999;;;14.67;100.0
22775;BME280;11554;51.106;3.684;2022-09-23T17:35:00;101437.0;;;14.55;100.0
22775;BME280;11554;51.106;3.684;2022-09-23T17:40:00;101440.65000000001;;;14.38;100.0
22775;BME280;11554;51.106;3.684;2022-09-23T17:45:00;101442.61;;;14.23;100.0
22775;BME280;11554;51.106;3.684;2022-09-23T17:50:00;101444.17;;;14.13;100.0
22775;BME280;11554;51.106;3.684;2022-09-23T17:55:00;101440.81;;;14.01;100.0
22775;BME280;11554;51.106;3.684;2022-09-23T18:00:00;101442.21;;;13.88;100.0
22775;BME280;11554;51.106;3.684;2022-09-23T18:05:00;101439.73;;;13.80;100.0
22775;BME280;11554;51.106;3.684;2022-09-23T18:10:00;101441.78;;;13.73;100.0
22775;BME280;11554;51.106;3.684;2022-09-23T18:15:00;101439.48000000001;;;13.66;100.0
22775;BME280;11554;51.106;3.684;2022-09-23T18:20:00;101438.17;;;13.61;100.0
22775;BME280;11554;51.106;3.684;2022-09-23T18:25:00;101435.58;;;13.52;100.0
22775;BME280;11554;51.106;3.684;2022-09-23T18:30:00;101434.31;;;13.44;100.0
22775;BME280;11554;51.106;3.684;2022-09-23T18:35:00;101431.61;;;13.40;100.0
22775;BME280;11554;51.106;3.684;2022-09-23T18:40:00;101432.79;;;13.35;100.0
22775;BME280;11554;51.106;3.684;2022-09-23T18:45:00;101433.51;;;13.30;100.0
22775;BME280;11554;51.106;3.684;2022-09-23T18:50:00;101432.11;;;13.27;100.0
22775;BME280;11554;51.106;3.684;2022-09-23T18:55:00;101433.20999999999;;;13.26;100.0
22775;BME280;11554;51.106;3.684;2022-09-23T19:00:00;101429.81;;;13.22;100.0
22775;BME280;11554;51.106;3.684;2022-09-23T19:05:00;101428.38;;;13.17;100.0
22775;BME280;11554;51.106;3.684;2022-09-23T19:10:00;101427.01;;;13.13;100.0
22775;BME280;11554;51.106;3.684;2022-09-23T19:15:00;101424.87999999999;;;13.11;100.0
22775;BME280;11554;51.106;3.684;2022-09-23T19:20:00;101429.90999999999;;;13.09;100.0
22775;BME280;11554;51.106;3.684;2022-09-23T19:25:00;101430.06;;;13.08;100.0
22775;BME280;11554;51.106;3.684;2022-09-23T19:30:00;101426.73999999999;;;13.06;100.0
22775;BME280;11554;51.106;3.684;2022-09-23T19:35:00;101421.1;;;13.03;100.0
22775;BME280;11554;51.106;3.684;2022-09-23T19:40:00;101423.51999999999;;;13.04;100.0
22775;BME280;11554;51.106;3.684;2022-09-23T19:45:00;101424.17;;;13.04;100.0
22775;BME280;11554;51.106;3.684;2022-09-23T19:50:00;101423.29999999999;;;13.03;100.0
22775;BME280;11554;51.106;3.684;2022-09-23T19:55:00;101423.06999999999;;;13.01;100.0
22775;BME280;11554;51.106;3.684;2022-09-23T20:00:00;101417.26999999999;;;13.01;100.0
22775;BME280;11554;51.106;3.684;2022-09-23T20:05:00;101417.26999999999;;;13.00;100.0
22775;BME280;11554;51.106;3.684;2022-09-23T20:10:00;101420.03;;;12.99;100.0
22775;BME280;11554;51.106;3.684;2022-09-23T20:15:00;101419.17;;;12.98;100.0
22775;BME280;11554;51.106;3.684;2022-09-23T20:20:00;101418.44;;;12.96;100.0
22775;BME280;11554;51.106;3.684;2022-09-23T20:25:00;101416.08;;;12.93;100.0
22775;BME280;11554;51.106;3.684;2022-09-23T20:30:00;101409.69;;;12.89;100.0
22775;BME280;11554;51.106;3.684;2022-09-23T20:35:00;101402.82999999999;;;12.86;100.0
22775;BME280;11554;51.106;3.684;2022-09-23T20:40:00;101399.49;;;12.82;100.0
22775;BME280;11554;51.106;3.684;2022-09-23T20:45:00;101398.8;;;12.79;100.0
22775;BME280;11554;51.106;3.684;2022-09-23T20:50:00;101392.8;;;12.76;100.0
22775;BME280;11554;51.106;3.684;2022-09-23T20:55:00;101394.25;;;12.73;100.0
22775;BME280;11554;51.106;3.684;2022-09-23T21:00:00;101392.04;;;12.72;100.0
22775;BME280;11554;51.106;3.684;2022-09-23T21:05:00;101390.73;;;12.71;100.0
22775;BME280;11554;51.106;3.684;2022-09-23T21:10:00;101390.99;;;12.69;100.0
22775;BME280;11554;51.106;3.684;2022-09-23T21:15:00;101388.3;;;12.66;100.0
22775;BME280;11554;51.106;3.684;2022-09-23T21:20:00;101389.53;;;12.65;100.0
22775;BME280;11554;51.106;3.684;2022-09-23T21:25:00;101384.06;;;12.64;100.0
22775;BME280;11554;51.106;3.684;2022-09-23T21:30:00;101379.96;;;12.62;100.0
22775;BME280;11554;51.106;3.684;2022-09-23T21:35:00;101376.59;;;12.61;100.0
22775;BME280;11554;51.106;3.684;2022-09-23T21:40:00;101370.86;;;12.60;100.0
22775;BME280;11554;51.106;3.684;2022-09-23T21:45:00;101371.77;;;12.58;100.0
22775;BME280;11554;51.106;3.684;2022-09-23T21:50:00;101369.98;;;12.57;100.0
22775;BME280;11554;51.106;3.684;2022-09-23T21:55:00;101367.94;;;12.55;100.0
22775;BME280;11554;51.106;3.684;2022-09-23T22:00:00;101372.86;;;12.55;100.0
22775;BME280;11554;51.106;3.684;2022-09-23T22:05:00;101370.25;;;12.53;100.0
22775;BME280;11554;51.106;3.684;2022-09-23T22:10:00;101373.63;;;12.53;100.0
22775;BME280;11554;51.106;3.684;2022-09-23T22:15:00;101372.75;;;12.52;100.0
22775;BME280;11554;51.106;3.684;2022-09-23T22:20:00;101367.17;;;12.50;100.0
22775;BME280;11554;51.106;3.684;2022-09-23T22:25:00;101364.72;;;12.50;100.0
22775;BME280;11554;51.106;3.684;2022-09-23T22:30:00;101364.14;;;12.49;100.0
22775;BME280;11554;51.106;3.684;2022-09-23T22:35:00;101359.34;;;12.48;100.0
22775;BME280;11554;51.106;3.684;2022-09-23T22:40:00;101354.17;;;12.48;100.0
22775;BME280;11554;51.106;3.684;2022-09-23T22:45:00;101349.65;;;12.47;100.0
22775;BME280;11554;51.106;3.684;2022-09-23T22:50:00;101339.92;;;12.45;100.0
22775;BME280;11554;51.106;3.684;2022-09-23T22:55:00;101332.72;;;12.43;100.0
22775;BME280;11554;51.106;3.684;2022-09-23T23:00:00;101321.34;;;12.42;100.0
22775;BME280;11554;51.106;3.684;2022-09-23T23:05:00;101317.58;;;12.41;100.0
22775;BME280;11554;51.106;3.684;2022-09-23T23:10:00;101312.68;;;12.40;100.0
22775;BME280;11554;51.106;3.684;2022-09-23T23:15:00;101306.87000000001;;;12.40;100.0
22775;BME280;11554;51.106;3.684;2022-09-23T23:20:00;101300.14;;;12.42;100.0
22775;BME280;11554;51.106;3.684;2022-09-23T23:25:00;101296.7;;;12.42;100.0
22775;BME280;11554;51.106;3.684;2022-09-23T23:30:00;101301.37;;;12.43;100.0
22775;BME280;11554;51.106;3.684;2022-09-23T23:35:00;101300.39;;;12.44;100.0
22775;BME280;11554;51.106;3.684;2022-09-23T23:40:00;101296.01;;;12.45;100.0
22775;BME280;11554;51.106;3.684;2022-09-23T23:45:00;101297.89;;;12.47;100.0
22775;BME280;11554;51.106;3.684;2022-09-23T23:50:00;101292.42;;;12.47;100.0
22775;BME280;11554;51.106;3.684;2022-09-23T23:55:00;101292.33;;;12.50;100.0
